sensor_id;sensor_type;location;lat;lon;timestamp;P1;P2;P0
54553;PMS5003;40450;55.848;-3.572;2023-06-14T00:02:24;33;33;
54553;PMS5003;40450;55.848;-3.572;2023-06-14T00:04:54;36;30;
54553;PMS5003;40450;55.848;-3.572;2023-06-14T00:09:55;35;34;
54553;PMS5003;40450;55.848;-3.572;2023-06-14T00:12:26;39;33;
54553;PMS5003;40450;55.848;-3.572;2023-06-14T00:14:56;33;30;
54553;PMS5003;40450;55.848;-3.572;2023-06-14T00:17:27;42;36;
54553;PMS5003;40450;55.848;-3.572;2023-06-14T00:19:57;32;29;
54553;PMS5003;40450;55.848;-3.572;2023-06-14T00:22:28;40;33;
54553;PMS5003;40450;55.848;-3.572;2023-06-14T00:24:58;34;33;
54553;PMS5003;40450;55.848;-3.572;2023-06-14T00:27:29;32;32;
54553;PMS5003;40450;55.848;-3.572;2023-06-14T00:29:59;35;29;
54553;PMS5003;40450;55.848;-3.572;2023-06-14T00:32:29;29;24;
54553;PMS5003;40450;55.848;-3.572;2023-06-14T00:34:59;36;30;
54553;PMS5003;40450;55.848;-3.572;2023-06-14T00:37:30;35;31;
54553;PMS5003;40450;55.848;-3.572;2023-06-14T00:40:00;38;32;
54553;PMS5003;40450;55.848;-3.572;2023-06-14T00:42:30;43;36;
54553;PMS5003;40450;55.848;-3.572;2023-06-14T00:45:00;46;31;
54553;PMS5003;40450;55.848;-3.572;2023-06-14T00:47:31;31;31;
54553;PMS5003;40450;55.848;-3.572;2023-06-14T00:50:01;51;37;
54553;PMS5003;40450;55.848;-3.572;2023-06-14T00:52:31;43;39;
54553;PMS5003;40450;55.848;-3.572;2023-06-14T00:55:02;44;38;
54553;PMS5003;40450;55.848;-3.572;2023-06-14T00:57:32;38;34;
54553;PMS5003;40450;55.848;-3.572;2023-06-14T01:00:03;34;29;
54553;PMS5003;40450;55.848;-3.572;2023-06-14T01:02:33;44;33;
54553;PMS5003;40450;55.848;-3.572;2023-06-14T01:05:03;37;37;
54553;PMS5003;40450;55.848;-3.572;2023-06-14T01:07:37;43;36;
54553;PMS5003;40450;55.848;-3.572;2023-06-14T01:10:08;46;40;
54553;PMS5003;40450;55.848;-3.572;2023-06-14T01:12:37;37;29;
54553;PMS5003;40450;55.848;-3.572;2023-06-14T01:15:05;48;39;
54553;PMS5003;40450;55.848;-3.572;2023-06-14T01:17:36;45;37;
54553;PMS5003;40450;55.848;-3.572;2023-06-14T01:20:07;41;35;
54553;PMS5003;40450;55.848;-3.572;2023-06-14T01:22:36;40;34;
54553;PMS5003;40450;55.848;-3.572;2023-06-14T01:25:07;42;35;
54553;PMS5003;40450;55.848;-3.572;2023-06-14T01:27:37;40;33;
54553;PMS5003;40450;55.848;-3.572;2023-06-14T01:30:08;41;36;
54553;PMS5003;40450;55.848;-3.572;2023-06-14T01:32:38;45;42;
54553;PMS5003;40450;55.848;-3.572;2023-06-14T01:35:09;41;36;
54553;PMS5003;40450;55.848;-3.572;2023-06-14T01:37:39;40;36;
54553;PMS5003;40450;55.848;-3.572;2023-06-14T01:40:10;41;33;
54553;PMS5003;40450;55.848;-3.572;2023-06-14T01:42:40;34;32;
54553;PMS5003;40450;55.848;-3.572;2023-06-14T01:45:11;37;29;
54553;PMS5003;40450;55.848;-3.572;2023-06-14T01:47:41;31;30;
54553;PMS5003;40450;55.848;-3.572;2023-06-14T01:50:11;35;30;
54553;PMS5003;40450;55.848;-3.572;2023-06-14T01:52:42;32;31;
54553;PMS5003;40450;55.848;-3.572;2023-06-14T01:55:12;42;30;
54553;PMS5003;40450;55.848;-3.572;2023-06-14T01:57:43;42;35;
54553;PMS5003;40450;55.848;-3.572;2023-06-14T02:00:14;31;28;
54553;PMS5003;40450;55.848;-3.572;2023-06-14T02:02:44;31;28;
54553;PMS5003;40450;55.848;-3.572;2023-06-14T02:05:15;29;28;
54553;PMS5003;40450;55.848;-3.572;2023-06-14T02:07:45;36;28;
54553;PMS5003;40450;55.848;-3.572;2023-06-14T02:10:16;33;29;
54553;PMS5003;40450;55.848;-3.572;2023-06-14T02:12:46;30;25;
54553;PMS5003;40450;55.848;-3.572;2023-06-14T02:15:17;33;28;
54553;PMS5003;40450;55.848;-3.572;2023-06-14T02:17:47;30;25;
54553;PMS5003;40450;55.848;-3.572;2023-06-14T02:20:18;31;30;
54553;PMS5003;40450;55.848;-3.572;2023-06-14T02:22:48;28;26;
54553;PMS5003;40450;55.848;-3.572;2023-06-14T02:25:19;21;21;
54553;PMS5003;40450;55.848;-3.572;2023-06-14T02:27:49;33;29;
54553;PMS5003;40450;55.848;-3.572;2023-06-14T02:30:20;35;32;
54553;PMS5003;40450;55.848;-3.572;2023-06-14T02:32:51;29;26;
54553;PMS5003;40450;55.848;-3.572;2023-06-14T02:35:21;33;33;
54553;PMS5003;40450;55.848;-3.572;2023-06-14T02:37:51;39;35;
54553;PMS5003;40450;55.848;-3.572;2023-06-14T02:40:22;37;32;
54553;PMS5003;40450;55.848;-3.572;2023-06-14T02:42:52;37;32;
54553;PMS5003;40450;55.848;-3.572;2023-06-14T02:45:23;37;31;
54553;PMS5003;40450;55.848;-3.572;2023-06-14T02:47:53;34;31;
54553;PMS5003;40450;55.848;-3.572;2023-06-14T02:50:24;39;34;
54553;PMS5003;40450;55.848;-3.572;2023-06-14T02:52:55;34;32;
54553;PMS5003;40450;55.848;-3.572;2023-06-14T02:55:25;34;32;
54553;PMS5003;40450;55.848;-3.572;2023-06-14T02:57:55;41;35;
54553;PMS5003;40450;55.848;-3.572;2023-06-14T03:00:26;31;28;
54553;PMS5003;40450;55.848;-3.572;2023-06-14T03:02:57;36;32;
54553;PMS5003;40450;55.848;-3.572;2023-06-14T03:05:28;36;25;
54553;PMS5003;40450;55.848;-3.572;2023-06-14T03:07:58;26;26;
54553;PMS5003;40450;55.848;-3.572;2023-06-14T03:10:29;36;30;
54553;PMS5003;40450;55.848;-3.572;2023-06-14T03:12:59;30;26;
54553;PMS5003;40450;55.848;-3.572;2023-06-14T03:15:30;35;29;
54553;PMS5003;40450;55.848;-3.572;2023-06-14T03:18:00;31;29;
54553;PMS5003;40450;55.848;-3.572;2023-06-14T03:20:30;32;27;
54553;PMS5003;40450;55.848;-3.572;2023-06-14T03:23:01;30;28;
54553;PMS5003;40450;55.848;-3.572;2023-06-14T03:25:31;36;33;
54553;PMS5003;40450;55.848;-3.572;2023-06-14T03:28:02;32;28;
54553;PMS5003;40450;55.848;-3.572;2023-06-14T03:30:32;27;25;
54553;PMS5003;40450;55.848;-3.572;2023-06-14T03:33:03;28;26;
54553;PMS5003;40450;55.848;-3.572;2023-06-14T03:35:33;26;25;
54553;PMS5003;40450;55.848;-3.572;2023-06-14T03:38:04;29;27;
54553;PMS5003;40450;55.848;-3.572;2023-06-14T03:40:34;26;23;
54553;PMS5003;40450;55.848;-3.572;2023-06-14T03:43:04;36;29;
54553;PMS5003;40450;55.848;-3.572;2023-06-14T03:45:35;31;28;
54553;PMS5003;40450;55.848;-3.572;2023-06-14T03:48:05;26;20;
54553;PMS5003;40450;55.848;-3.572;2023-06-14T03:50:36;33;31;
54553;PMS5003;40450;55.848;-3.572;2023-06-14T03:53:07;32;28;
54553;PMS5003;40450;55.848;-3.572;2023-06-14T03:55:37;31;29;
54553;PMS5003;40450;55.848;-3.572;2023-06-14T03:58:07;35;32;
54553;PMS5003;40450;55.848;-3.572;2023-06-14T04:00:38;33;30;
54553;PMS5003;40450;55.848;-3.572;2023-06-14T04:03:08;37;30;
54553;PMS5003;40450;55.848;-3.572;2023-06-14T04:05:39;26;26;
54553;PMS5003;40450;55.848;-3.572;2023-06-14T04:08:09;25;24;
54553;PMS5003;40450;55.848;-3.572;2023-06-14T04:10:40;36;31;
54553;PMS5003;40450;55.848;-3.572;2023-06-14T04:13:10;36;32;
54553;PMS5003;40450;55.848;-3.572;2023-06-14T04:15:41;41;34;
54553;PMS5003;40450;55.848;-3.572;2023-06-14T04:18:12;42;32;
54553;PMS5003;40450;55.848;-3.572;2023-06-14T04:20:42;29;27;
54553;PMS5003;40450;55.848;-3.572;2023-06-14T04:23:13;33;30;
54553;PMS5003;40450;55.848;-3.572;2023-06-14T04:25:44;45;39;
54553;PMS5003;40450;55.848;-3.572;2023-06-14T04:28:14;35;34;
54553;PMS5003;40450;55.848;-3.572;2023-06-14T04:30:44;39;35;
54553;PMS5003;40450;55.848;-3.572;2023-06-14T04:33:15;36;31;
54553;PMS5003;40450;55.848;-3.572;2023-06-14T04:35:45;37;32;
54553;PMS5003;40450;55.848;-3.572;2023-06-14T04:38:16;36;32;
54553;PMS5003;40450;55.848;-3.572;2023-06-14T04:40:46;32;30;
54553;PMS5003;40450;55.848;-3.572;2023-06-14T04:43:17;36;26;
54553;PMS5003;40450;55.848;-3.572;2023-06-14T04:45:47;29;26;
54553;PMS5003;40450;55.848;-3.572;2023-06-14T04:48:17;41;33;
54553;PMS5003;40450;55.848;-3.572;2023-06-14T04:50:47;40;33;
54553;PMS5003;40450;55.848;-3.572;2023-06-14T04:53:17;35;28;
54553;PMS5003;40450;55.848;-3.572;2023-06-14T04:55:48;27;27;
54553;PMS5003;40450;55.848;-3.572;2023-06-14T04:58:18;35;31;
54553;PMS5003;40450;55.848;-3.572;2023-06-14T05:00:49;32;29;
54553;PMS5003;40450;55.848;-3.572;2023-06-14T05:03:20;36;27;
54553;PMS5003;40450;55.848;-3.572;2023-06-14T05:05:50;33;25;
54553;PMS5003;40450;55.848;-3.572;2023-06-14T05:08:20;40;37;
54553;PMS5003;40450;55.848;-3.572;2023-06-14T05:10:50;31;29;
54553;PMS5003;40450;55.848;-3.572;2023-06-14T05:13:21;45;35;
54553;PMS5003;40450;55.848;-3.572;2023-06-14T05:15:52;43;39;
54553;PMS5003;40450;55.848;-3.572;2023-06-14T05:18:22;39;35;
54553;PMS5003;40450;55.848;-3.572;2023-06-14T05:20:52;39;34;
54553;PMS5003;40450;55.848;-3.572;2023-06-14T05:23:23;35;32;
54553;PMS5003;40450;55.848;-3.572;2023-06-14T05:25:54;41;34;
54553;PMS5003;40450;55.848;-3.572;2023-06-14T05:28:25;36;31;
54553;PMS5003;40450;55.848;-3.572;2023-06-14T05:30:55;38;33;
54553;PMS5003;40450;55.848;-3.572;2023-06-14T05:33:25;34;31;
54553;PMS5003;40450;55.848;-3.572;2023-06-14T05:35:56;39;34;
54553;PMS5003;40450;55.848;-3.572;2023-06-14T05:38:26;42;36;
54553;PMS5003;40450;55.848;-3.572;2023-06-14T05:40:57;47;38;
54553;PMS5003;40450;55.848;-3.572;2023-06-14T05:43:27;33;28;
54553;PMS5003;40450;55.848;-3.572;2023-06-14T05:45:58;38;31;
54553;PMS5003;40450;55.848;-3.572;2023-06-14T05:48:28;42;36;
54553;PMS5003;40450;55.848;-3.572;2023-06-14T05:50:59;39;31;
54553;PMS5003;40450;55.848;-3.572;2023-06-14T05:53:29;36;33;
54553;PMS5003;40450;55.848;-3.572;2023-06-14T05:55:59;40;37;
54553;PMS5003;40450;55.848;-3.572;2023-06-14T05:58:30;37;30;
54553;PMS5003;40450;55.848;-3.572;2023-06-14T06:01:01;43;34;
54553;PMS5003;40450;55.848;-3.572;2023-06-14T06:03:31;38;35;
54553;PMS5003;40450;55.848;-3.572;2023-06-14T06:06:01;39;33;
54553;PMS5003;40450;55.848;-3.572;2023-06-14T06:08:33;46;38;
54553;PMS5003;40450;55.848;-3.572;2023-06-14T06:11:02;42;36;
54553;PMS5003;40450;55.848;-3.572;2023-06-14T06:13:32;41;33;
54553;PMS5003;40450;55.848;-3.572;2023-06-14T06:16:03;39;36;
54553;PMS5003;40450;55.848;-3.572;2023-06-14T06:18:33;44;36;
54553;PMS5003;40450;55.848;-3.572;2023-06-14T06:21:03;30;28;
54553;PMS5003;40450;55.848;-3.572;2023-06-14T06:23:34;36;34;
54553;PMS5003;40450;55.848;-3.572;2023-06-14T06:26:04;37;33;
54553;PMS5003;40450;55.848;-3.572;2023-06-14T06:28:35;35;35;
54553;PMS5003;40450;55.848;-3.572;2023-06-14T06:31:05;36;31;
54553;PMS5003;40450;55.848;-3.572;2023-06-14T06:33:36;38;33;
54553;PMS5003;40450;55.848;-3.572;2023-06-14T06:36:07;34;32;
54553;PMS5003;40450;55.848;-3.572;2023-06-14T06:38:37;39;36;
54553;PMS5003;40450;55.848;-3.572;2023-06-14T06:41:07;39;33;
54553;PMS5003;40450;55.848;-3.572;2023-06-14T06:43:37;43;34;
54553;PMS5003;40450;55.848;-3.572;2023-06-14T06:46:08;41;32;
54553;PMS5003;40450;55.848;-3.572;2023-06-14T06:48:38;49;42;
54553;PMS5003;40450;55.848;-3.572;2023-06-14T06:51:09;44;42;
54553;PMS5003;40450;55.848;-3.572;2023-06-14T06:53:41;46;40;
54553;PMS5003;40450;55.848;-3.572;2023-06-14T06:56:10;50;42;
54553;PMS5003;40450;55.848;-3.572;2023-06-14T06:58:40;37;31;
54553;PMS5003;40450;55.848;-3.572;2023-06-14T07:01:13;39;36;
54553;PMS5003;40450;55.848;-3.572;2023-06-14T07:03:41;47;41;
54553;PMS5003;40450;55.848;-3.572;2023-06-14T07:06:12;43;41;
54553;PMS5003;40450;55.848;-3.572;2023-06-14T07:08:42;49;42;
54553;PMS5003;40450;55.848;-3.572;2023-06-14T07:11:12;34;33;
54553;PMS5003;40450;55.848;-3.572;2023-06-14T07:13:43;44;36;
54553;PMS5003;40450;55.848;-3.572;2023-06-14T07:16:14;35;33;
54553;PMS5003;40450;55.848;-3.572;2023-06-14T07:18:45;31;29;
54553;PMS5003;40450;55.848;-3.572;2023-06-14T07:21:15;43;36;
54553;PMS5003;40450;55.848;-3.572;2023-06-14T07:23:45;37;35;
54553;PMS5003;40450;55.848;-3.572;2023-06-14T07:26:16;49;38;
54553;PMS5003;40450;55.848;-3.572;2023-06-14T07:28:47;40;35;
54553;PMS5003;40450;55.848;-3.572;2023-06-14T07:31:17;41;36;
54553;PMS5003;40450;55.848;-3.572;2023-06-14T07:33:47;33;33;
54553;PMS5003;40450;55.848;-3.572;2023-06-14T07:36:18;45;37;
54553;PMS5003;40450;55.848;-3.572;2023-06-14T07:38:48;38;33;
54553;PMS5003;40450;55.848;-3.572;2023-06-14T07:41:19;37;35;
54553;PMS5003;40450;55.848;-3.572;2023-06-14T07:43:49;49;37;
54553;PMS5003;40450;55.848;-3.572;2023-06-14T07:46:19;42;33;
54553;PMS5003;40450;55.848;-3.572;2023-06-14T07:48:50;46;40;
54553;PMS5003;40450;55.848;-3.572;2023-06-14T07:51:20;52;46;
54553;PMS5003;40450;55.848;-3.572;2023-06-14T07:53:51;36;31;
54553;PMS5003;40450;55.848;-3.572;2023-06-14T07:56:21;45;39;
54553;PMS5003;40450;55.848;-3.572;2023-06-14T07:58:52;34;31;
54553;PMS5003;40450;55.848;-3.572;2023-06-14T08:01:23;31;26;
54553;PMS5003;40450;55.848;-3.572;2023-06-14T08:03:53;32;30;
54553;PMS5003;40450;55.848;-3.572;2023-06-14T08:06:23;37;33;
54553;PMS5003;40450;55.848;-3.572;2023-06-14T08:08:54;38;33;
54553;PMS5003;40450;55.848;-3.572;2023-06-14T08:11:25;39;34;
54553;PMS5003;40450;55.848;-3.572;2023-06-14T08:13:55;32;30;
54553;PMS5003;40450;55.848;-3.572;2023-06-14T08:16:26;34;33;
54553;PMS5003;40450;55.848;-3.572;2023-06-14T08:18:56;40;37;
54553;PMS5003;40450;55.848;-3.572;2023-06-14T08:21:26;35;32;
54553;PMS5003;40450;55.848;-3.572;2023-06-14T08:23:57;35;35;
54553;PMS5003;40450;55.848;-3.572;2023-06-14T08:26:26;34;30;
54553;PMS5003;40450;55.848;-3.572;2023-06-14T08:28:57;29;27;
54553;PMS5003;40450;55.848;-3.572;2023-06-14T08:31:27;28;25;
54553;PMS5003;40450;55.848;-3.572;2023-06-14T08:33:57;36;31;
54553;PMS5003;40450;55.848;-3.572;2023-06-14T08:36:27;27;26;
54553;PMS5003;40450;55.848;-3.572;2023-06-14T08:38:57;28;25;
54553;PMS5003;40450;55.848;-3.572;2023-06-14T08:41:28;29;29;
54553;PMS5003;40450;55.848;-3.572;2023-06-14T08:43:58;26;24;
54553;PMS5003;40450;55.848;-3.572;2023-06-14T08:46:29;26;25;
54553;PMS5003;40450;55.848;-3.572;2023-06-14T08:48:59;30;26;
54553;PMS5003;40450;55.848;-3.572;2023-06-14T08:51:31;22;22;
54553;PMS5003;40450;55.848;-3.572;2023-06-14T08:54:00;27;24;
54553;PMS5003;40450;55.848;-3.572;2023-06-14T08:56:31;22;20;
54553;PMS5003;40450;55.848;-3.572;2023-06-14T08:59:01;23;22;
54553;PMS5003;40450;55.848;-3.572;2023-06-14T09:01:32;24;23;
54553;PMS5003;40450;55.848;-3.572;2023-06-14T09:04:02;29;23;
54553;PMS5003;40450;55.848;-3.572;2023-06-14T09:06:32;23;23;
54553;PMS5003;40450;55.848;-3.572;2023-06-14T09:09:02;25;24;
54553;PMS5003;40450;55.848;-3.572;2023-06-14T09:11:34;28;22;
54553;PMS5003;40450;55.848;-3.572;2023-06-14T09:14:03;20;19;
54553;PMS5003;40450;55.848;-3.572;2023-06-14T09:16:34;23;21;
54553;PMS5003;40450;55.848;-3.572;2023-06-14T09:19:04;19;18;
54553;PMS5003;40450;55.848;-3.572;2023-06-14T09:21:34;23;21;
54553;PMS5003;40450;55.848;-3.572;2023-06-14T09:24:05;22;21;
54553;PMS5003;40450;55.848;-3.572;2023-06-14T09:26:35;29;26;
54553;PMS5003;40450;55.848;-3.572;2023-06-14T09:29:05;25;24;
54553;PMS5003;40450;55.848;-3.572;2023-06-14T09:31:35;24;22;
54553;PMS5003;40450;55.848;-3.572;2023-06-14T09:34:06;25;23;
54553;PMS5003;40450;55.848;-3.572;2023-06-14T09:36:36;22;21;
54553;PMS5003;40450;55.848;-3.572;2023-06-14T09:39:07;24;23;
54553;PMS5003;40450;55.848;-3.572;2023-06-14T09:41:38;23;22;
54553;PMS5003;40450;55.848;-3.572;2023-06-14T09:44:08;22;20;
54553;PMS5003;40450;55.848;-3.572;2023-06-14T09:46:37;21;19;
54553;PMS5003;40450;55.848;-3.572;2023-06-14T09:49:08;18;18;
54553;PMS5003;40450;55.848;-3.572;2023-06-14T09:51:42;25;17;
54553;PMS5003;40450;55.848;-3.572;2023-06-14T09:54:09;21;20;
54553;PMS5003;40450;55.848;-3.572;2023-06-14T09:56:40;20;20;
54553;PMS5003;40450;55.848;-3.572;2023-06-14T09:59:09;16;15;
54553;PMS5003;40450;55.848;-3.572;2023-06-14T10:01:41;24;21;
54553;PMS5003;40450;55.848;-3.572;2023-06-14T10:04:10;18;17;
54553;PMS5003;40450;55.848;-3.572;2023-06-14T10:06:41;20;17;
54553;PMS5003;40450;55.848;-3.572;2023-06-14T10:09:11;17;17;
54553;PMS5003;40450;55.848;-3.572;2023-06-14T10:11:41;19;18;
54553;PMS5003;40450;55.848;-3.572;2023-06-14T10:14:12;14;14;
54553;PMS5003;40450;55.848;-3.572;2023-06-14T10:16:45;23;20;
54553;PMS5003;40450;55.848;-3.572;2023-06-14T10:19:13;16;16;
54553;PMS5003;40450;55.848;-3.572;2023-06-14T10:21:45;19;18;
54553;PMS5003;40450;55.848;-3.572;2023-06-14T10:24:13;19;17;
54553;PMS5003;40450;55.848;-3.572;2023-06-14T10:29:13;22;20;
54553;PMS5003;40450;55.848;-3.572;2023-06-14T10:31:43;26;20;
54553;PMS5003;40450;55.848;-3.572;2023-06-14T10:36:44;21;19;
54553;PMS5003;40450;55.848;-3.572;2023-06-14T10:39:15;20;18;
54553;PMS5003;40450;55.848;-3.572;2023-06-14T10:46:45;19;19;
54553;PMS5003;40450;55.848;-3.572;2023-06-14T10:49:15;19;19;
54553;PMS5003;40450;55.848;-3.572;2023-06-14T10:51:49;18;15;
54553;PMS5003;40450;55.848;-3.572;2023-06-14T10:54:16;17;16;
54553;PMS5003;40450;55.848;-3.572;2023-06-14T10:56:47;20;18;
54553;PMS5003;40450;55.848;-3.572;2023-06-14T10:59:17;16;15;
54553;PMS5003;40450;55.848;-3.572;2023-06-14T11:01:50;18;17;
54553;PMS5003;40450;55.848;-3.572;2023-06-14T11:04:17;20;18;
54553;PMS5003;40450;55.848;-3.572;2023-06-14T11:06:48;22;16;
54553;PMS5003;40450;55.848;-3.572;2023-06-14T11:11:49;20;18;
54553;PMS5003;40450;55.848;-3.572;2023-06-14T11:14:19;22;20;
54553;PMS5003;40450;55.848;-3.572;2023-06-14T11:16:49;16;15;
54553;PMS5003;40450;55.848;-3.572;2023-06-14T11:19:20;18;14;
54553;PMS5003;40450;55.848;-3.572;2023-06-14T11:21:50;19;16;
54553;PMS5003;40450;55.848;-3.572;2023-06-14T11:24:20;19;18;
54553;PMS5003;40450;55.848;-3.572;2023-06-14T11:26:51;17;15;
54553;PMS5003;40450;55.848;-3.572;2023-06-14T11:29:21;14;11;
54553;PMS5003;40450;55.848;-3.572;2023-06-14T11:31:52;14;14;
54553;PMS5003;40450;55.848;-3.572;2023-06-14T11:34:22;13;13;
54553;PMS5003;40450;55.848;-3.572;2023-06-14T11:36:53;16;16;
54553;PMS5003;40450;55.848;-3.572;2023-06-14T11:39:24;20;19;
54553;PMS5003;40450;55.848;-3.572;2023-06-14T11:41:54;17;15;
54553;PMS5003;40450;55.848;-3.572;2023-06-14T11:44:24;15;13;
54553;PMS5003;40450;55.848;-3.572;2023-06-14T11:46:55;15;13;
54553;PMS5003;40450;55.848;-3.572;2023-06-14T11:49:25;16;13;
54553;PMS5003;40450;55.848;-3.572;2023-06-14T11:51:55;16;16;
54553;PMS5003;40450;55.848;-3.572;2023-06-14T11:54:26;12;11;
54553;PMS5003;40450;55.848;-3.572;2023-06-14T11:56:56;17;15;
54553;PMS5003;40450;55.848;-3.572;2023-06-14T11:59:26;12;12;
54553;PMS5003;40450;55.848;-3.572;2023-06-14T12:01:57;12;12;
54553;PMS5003;40450;55.848;-3.572;2023-06-14T12:04:27;15;15;
54553;PMS5003;40450;55.848;-3.572;2023-06-14T12:09:28;14;14;
54553;PMS5003;40450;55.848;-3.572;2023-06-14T12:12:00;11;11;
54553;PMS5003;40450;55.848;-3.572;2023-06-14T12:14:29;13;10;
54553;PMS5003;40450;55.848;-3.572;2023-06-14T12:17:03;13;13;
54553;PMS5003;40450;55.848;-3.572;2023-06-14T12:19:30;12;11;
54553;PMS5003;40450;55.848;-3.572;2023-06-14T12:22:00;13;13;
54553;PMS5003;40450;55.848;-3.572;2023-06-14T12:24:31;16;15;
54553;PMS5003;40450;55.848;-3.572;2023-06-14T12:27:02;14;13;
54553;PMS5003;40450;55.848;-3.572;2023-06-14T12:29:32;17;11;
54553;PMS5003;40450;55.848;-3.572;2023-06-14T12:32:02;12;12;
54553;PMS5003;40450;55.848;-3.572;2023-06-14T12:34:33;15;12;
54553;PMS5003;40450;55.848;-3.572;2023-06-14T12:37:04;12;12;
54553;PMS5003;40450;55.848;-3.572;2023-06-14T12:39:34;13;12;
54553;PMS5003;40450;55.848;-3.572;2023-06-14T12:42:05;14;14;
54553;PMS5003;40450;55.848;-3.572;2023-06-14T12:44:35;15;13;
54553;PMS5003;40450;55.848;-3.572;2023-06-14T12:47:06;17;15;
54553;PMS5003;40450;55.848;-3.572;2023-06-14T12:49:37;16;16;
54553;PMS5003;40450;55.848;-3.572;2023-06-14T12:52:07;11;11;
54553;PMS5003;40450;55.848;-3.572;2023-06-14T12:54:37;15;12;
54553;PMS5003;40450;55.848;-3.572;2023-06-14T12:57:07;14;13;
54553;PMS5003;40450;55.848;-3.572;2023-06-14T12:59:38;16;15;
54553;PMS5003;40450;55.848;-3.572;2023-06-14T13:02:11;17;16;
54553;PMS5003;40450;55.848;-3.572;2023-06-14T13:04:39;17;16;
54553;PMS5003;40450;55.848;-3.572;2023-06-14T13:07:09;12;12;
54553;PMS5003;40450;55.848;-3.572;2023-06-14T13:09:39;12;12;
54553;PMS5003;40450;55.848;-3.572;2023-06-14T13:12:10;17;15;
54553;PMS5003;40450;55.848;-3.572;2023-06-14T13:14:40;16;15;
54553;PMS5003;40450;55.848;-3.572;2023-06-14T13:17:11;13;13;
54553;PMS5003;40450;55.848;-3.572;2023-06-14T13:19:41;11;11;
54553;PMS5003;40450;55.848;-3.572;2023-06-14T13:22:12;13;13;
54553;PMS5003;40450;55.848;-3.572;2023-06-14T13:24:42;13;12;
54553;PMS5003;40450;55.848;-3.572;2023-06-14T13:27:13;13;11;
54553;PMS5003;40450;55.848;-3.572;2023-06-14T13:29:43;10;9;
54553;PMS5003;40450;55.848;-3.572;2023-06-14T13:32:13;11;11;
54553;PMS5003;40450;55.848;-3.572;2023-06-14T13:34:45;13;11;
54553;PMS5003;40450;55.848;-3.572;2023-06-14T13:37:15;13;11;
54553;PMS5003;40450;55.848;-3.572;2023-06-14T13:39:45;14;12;
54553;PMS5003;40450;55.848;-3.572;2023-06-14T13:42:16;12;11;
54553;PMS5003;40450;55.848;-3.572;2023-06-14T13:44:46;14;13;
54553;PMS5003;40450;55.848;-3.572;2023-06-14T13:47:17;13;10;
54553;PMS5003;40450;55.848;-3.572;2023-06-14T13:49:47;11;11;
54553;PMS5003;40450;55.848;-3.572;2023-06-14T13:52:17;10;10;
54553;PMS5003;40450;55.848;-3.572;2023-06-14T13:54:47;10;9;
54553;PMS5003;40450;55.848;-3.572;2023-06-14T13:57:18;9;9;
54553;PMS5003;40450;55.848;-3.572;2023-06-14T13:59:48;16;13;
54553;PMS5003;40450;55.848;-3.572;2023-06-14T14:02:18;12;10;
54553;PMS5003;40450;55.848;-3.572;2023-06-14T14:04:49;12;11;
54553;PMS5003;40450;55.848;-3.572;2023-06-14T14:07:19;14;12;
54553;PMS5003;40450;55.848;-3.572;2023-06-14T14:09:49;10;9;
54553;PMS5003;40450;55.848;-3.572;2023-06-14T14:12:19;13;11;
54553;PMS5003;40450;55.848;-3.572;2023-06-14T14:14:50;11;10;
54553;PMS5003;40450;55.848;-3.572;2023-06-14T14:17:21;7;7;
54553;PMS5003;40450;55.848;-3.572;2023-06-14T14:19:52;10;10;
54553;PMS5003;40450;55.848;-3.572;2023-06-14T14:22:22;13;13;
54553;PMS5003;40450;55.848;-3.572;2023-06-14T14:24:53;12;12;
54553;PMS5003;40450;55.848;-3.572;2023-06-14T14:27:24;11;10;
54553;PMS5003;40450;55.848;-3.572;2023-06-14T14:29:54;14;11;
54553;PMS5003;40450;55.848;-3.572;2023-06-14T14:32:24;9;9;
54553;PMS5003;40450;55.848;-3.572;2023-06-14T14:34:55;13;11;
54553;PMS5003;40450;55.848;-3.572;2023-06-14T14:37:25;9;9;
54553;PMS5003;40450;55.848;-3.572;2023-06-14T14:39:55;8;8;
54553;PMS5003;40450;55.848;-3.572;2023-06-14T14:42:25;10;10;
54553;PMS5003;40450;55.848;-3.572;2023-06-14T14:44:56;12;10;
54553;PMS5003;40450;55.848;-3.572;2023-06-14T14:47:26;11;11;
54553;PMS5003;40450;55.848;-3.572;2023-06-14T14:49:56;9;7;
54553;PMS5003;40450;55.848;-3.572;2023-06-14T14:52:27;12;9;
54553;PMS5003;40450;55.848;-3.572;2023-06-14T14:54:57;11;10;
54553;PMS5003;40450;55.848;-3.572;2023-06-14T14:57:27;11;11;
54553;PMS5003;40450;55.848;-3.572;2023-06-14T14:59:58;11;10;
54553;PMS5003;40450;55.848;-3.572;2023-06-14T15:02:28;11;9;
54553;PMS5003;40450;55.848;-3.572;2023-06-14T15:04:58;10;10;
54553;PMS5003;40450;55.848;-3.572;2023-06-14T15:07:30;9;9;
54553;PMS5003;40450;55.848;-3.572;2023-06-14T15:09:59;9;7;
54553;PMS5003;40450;55.848;-3.572;2023-06-14T15:12:29;7;7;
54553;PMS5003;40450;55.848;-3.572;2023-06-14T15:15:00;5;5;
54553;PMS5003;40450;55.848;-3.572;2023-06-14T15:17:30;8;8;
54553;PMS5003;40450;55.848;-3.572;2023-06-14T15:20:00;9;8;
54553;PMS5003;40450;55.848;-3.572;2023-06-14T15:22:30;6;5;
54553;PMS5003;40450;55.848;-3.572;2023-06-14T15:25:01;5;5;
54553;PMS5003;40450;55.848;-3.572;2023-06-14T15:27:31;7;7;
54553;PMS5003;40450;55.848;-3.572;2023-06-14T15:30:02;7;7;
54553;PMS5003;40450;55.848;-3.572;2023-06-14T15:32:32;7;7;
54553;PMS5003;40450;55.848;-3.572;2023-06-14T15:35:02;6;6;
54553;PMS5003;40450;55.848;-3.572;2023-06-14T15:37:32;6;6;
54553;PMS5003;40450;55.848;-3.572;2023-06-14T15:40:03;8;7;
54553;PMS5003;40450;55.848;-3.572;2023-06-14T15:42:33;10;7;
54553;PMS5003;40450;55.848;-3.572;2023-06-14T15:45:04;3;3;
54553;PMS5003;40450;55.848;-3.572;2023-06-14T15:47:34;6;6;
54553;PMS5003;40450;55.848;-3.572;2023-06-14T15:50:05;4;4;
54553;PMS5003;40450;55.848;-3.572;2023-06-14T15:52:35;4;4;
54553;PMS5003;40450;55.848;-3.572;2023-06-14T15:55:05;5;3;
54553;PMS5003;40450;55.848;-3.572;2023-06-14T15:57:35;3;3;
54553;PMS5003;40450;55.848;-3.572;2023-06-14T16:00:06;4;4;
54553;PMS5003;40450;55.848;-3.572;2023-06-14T16:02:36;4;4;
54553;PMS5003;40450;55.848;-3.572;2023-06-14T16:05:06;3;3;
54553;PMS5003;40450;55.848;-3.572;2023-06-14T16:07:36;3;3;
54553;PMS5003;40450;55.848;-3.572;2023-06-14T16:10:07;5;5;
54553;PMS5003;40450;55.848;-3.572;2023-06-14T16:12:37;3;3;
54553;PMS5003;40450;55.848;-3.572;2023-06-14T16:15:08;4;3;
54553;PMS5003;40450;55.848;-3.572;2023-06-14T16:17:38;4;4;
54553;PMS5003;40450;55.848;-3.572;2023-06-14T16:20:08;4;4;
54553;PMS5003;40450;55.848;-3.572;2023-06-14T16:22:38;4;4;
54553;PMS5003;40450;55.848;-3.572;2023-06-14T16:25:09;3;3;
54553;PMS5003;40450;55.848;-3.572;2023-06-14T16:27:39;4;4;
54553;PMS5003;40450;55.848;-3.572;2023-06-14T16:30:10;3;3;
54553;PMS5003;40450;55.848;-3.572;2023-06-14T16:32:40;3;3;
54553;PMS5003;40450;55.848;-3.572;2023-06-14T16:35:10;5;5;
54553;PMS5003;40450;55.848;-3.572;2023-06-14T16:37:41;3;3;
54553;PMS5003;40450;55.848;-3.572;2023-06-14T16:40:11;5;5;
54553;PMS5003;40450;55.848;-3.572;2023-06-14T16:42:41;5;4;
54553;PMS5003;40450;55.848;-3.572;2023-06-14T16:45:12;6;5;